Portada
METAR-TAF:

METAR-TAF

Aeroports :

Hartford, Connecticut, Estats Units d'Amèrica

latitud: 41-44-06N, longitud: 072-39-06W, altitud: 5 m

Observació

L'informe es va fer fa 49 minuts, a les 03:53 UTC
Vent 5 kt del Sud
Temperatura 22°C
Humitat 83%
Pressió 1014 hPa
Visibilitat: 16.1 km
Núvols disperses a una alçada de 8000 ft

METAR: KHFD 050353Z 18005KT 10SM SCT080 22/19 A2993 RMK AO2 SLP133 T02170189

Hora: 00:42 (04:42 UTC)


TAF: manca

Observacions i pronòstics meteorològics de més de 4000 aeroports (METAR i TAF).

Les estacions disponibles són els punts grocs i vermells al mapa.

Posi el ratolí al punt desitjat per veure el nom de l'estació.

Feu clic per veure les observacions i els pronòstics meteorològics.

Per canviar el mapa: feu clic els botons verds amb una creu de color negre per apropar; al botó verd amb un guió per allunyar la imatge; o en les fletxes verdes per a mapes adjacents.


METAR-TAF: